sensor_id;sensor_type;location;lat;lon;timestamp;P1;durP1;ratioP1;P2;durP2;ratioP2
40951;SDS011;26682;51.660;19.338;2022-07-01T00:00:48;13.25;;;11.18;;
40951;SDS011;26682;51.660;19.338;2022-07-01T00:02:37;18.50;;;11.82;;
40951;SDS011;26682;51.660;19.338;2022-07-01T00:04:24;18.73;;;12.30;;
40951;SDS011;26682;51.660;19.338;2022-07-01T00:06:33;18.38;;;11.32;;
40951;SDS011;26682;51.660;19.338;2022-07-01T00:08:19;14.63;;;11.90;;
40951;SDS011;26682;51.660;19.338;2022-07-01T00:10:05;17.63;;;12.57;;
40951;SDS011;26682;51.660;19.338;2022-07-01T00:11:51;17.25;;;12.80;;
40951;SDS011;26682;51.660;19.338;2022-07-01T00:13:37;15.32;;;11.80;;
40951;SDS011;26682;51.660;19.338;2022-07-01T00:15:24;20.75;;;12.02;;
40951;SDS011;26682;51.660;19.338;2022-07-01T00:17:10;17.10;;;11.70;;
40951;SDS011;26682;51.660;19.338;2022-07-01T00:18:56;18.25;;;11.73;;
40951;SDS011;26682;51.660;19.338;2022-07-01T00:20:42;18.65;;;12.13;;
40951;SDS011;26682;51.660;19.338;2022-07-01T00:22:28;17.10;;;11.77;;
40951;SDS011;26682;51.660;19.338;2022-07-01T00:24:14;17.10;;;12.10;;
40951;SDS011;26682;51.660;19.338;2022-07-01T00:26:00;15.10;;;11.65;;
40951;SDS011;26682;51.660;19.338;2022-07-01T00:27:46;16.77;;;12.32;;
40951;SDS011;26682;51.660;19.338;2022-07-01T00:29:32;18.85;;;11.88;;
40951;SDS011;26682;51.660;19.338;2022-07-01T00:31:19;17.20;;;11.82;;
40951;SDS011;26682;51.660;19.338;2022-07-01T00:33:05;17.23;;;11.63;;
40951;SDS011;26682;51.660;19.338;2022-07-01T00:34:51;15.23;;;11.75;;
40951;SDS011;26682;51.660;19.338;2022-07-01T00:36:37;13.85;;;11.00;;
40951;SDS011;26682;51.660;19.338;2022-07-01T00:38:23;17.15;;;11.00;;
40951;SDS011;26682;51.660;19.338;2022-07-01T00:40:09;15.52;;;10.93;;
40951;SDS011;26682;51.660;19.338;2022-07-01T00:42:00;19.45;;;10.82;;
40951;SDS011;26682;51.660;19.338;2022-07-01T00:43:47;17.85;;;10.32;;
40951;SDS011;26682;51.660;19.338;2022-07-01T00:45:33;16.48;;;11.13;;
40951;SDS011;26682;51.660;19.338;2022-07-01T00:47:19;18.98;;;10.63;;
40951;SDS011;26682;51.660;19.338;2022-07-01T00:49:05;16.52;;;10.55;;
40951;SDS011;26682;51.660;19.338;2022-07-01T00:50:51;16.30;;;11.05;;
40951;SDS011;26682;51.660;19.338;2022-07-01T00:52:37;16.02;;;10.55;;
40951;SDS011;26682;51.660;19.338;2022-07-01T00:54:24;15.50;;;10.25;;
40951;SDS011;26682;51.660;19.338;2022-07-01T00:56:11;18.83;;;10.93;;
40951;SDS011;26682;51.660;19.338;2022-07-01T00:57:58;17.47;;;10.57;;
40951;SDS011;26682;51.660;19.338;2022-07-01T00:59:44;16.20;;;10.43;;
40951;SDS011;26682;51.660;19.338;2022-07-01T01:01:30;19.05;;;10.45;;
40951;SDS011;26682;51.660;19.338;2022-07-01T01:03:17;16.90;;;10.13;;
40951;SDS011;26682;51.660;19.338;2022-07-01T01:05:06;19.38;;;10.10;;
40951;SDS011;26682;51.660;19.338;2022-07-01T01:06:53;13.88;;;10.23;;
40951;SDS011;26682;51.660;19.338;2022-07-01T01:08:39;10.82;;;9.68;;
40951;SDS011;26682;51.660;19.338;2022-07-01T01:10:25;14.73;;;9.68;;
40951;SDS011;26682;51.660;19.338;2022-07-01T01:12:13;14.23;;;9.68;;
40951;SDS011;26682;51.660;19.338;2022-07-01T01:14:00;14.10;;;10.10;;
40951;SDS011;26682;51.660;19.338;2022-07-01T01:15:46;14.35;;;10.20;;
40951;SDS011;26682;51.660;19.338;2022-07-01T01:17:32;13.13;;;10.75;;
40951;SDS011;26682;51.660;19.338;2022-07-01T01:19:18;12.65;;;10.15;;
40951;SDS011;26682;51.660;19.338;2022-07-01T01:21:04;17.63;;;10.23;;
40951;SDS011;26682;51.660;19.338;2022-07-01T01:22:50;13.45;;;10.30;;
40951;SDS011;26682;51.660;19.338;2022-07-01T01:24:37;14.13;;;9.75;;
40951;SDS011;26682;51.660;19.338;2022-07-01T01:26:23;17.23;;;9.50;;
40951;SDS011;26682;51.660;19.338;2022-07-01T01:28:10;17.33;;;10.15;;
40951;SDS011;26682;51.660;19.338;2022-07-01T01:29:56;15.75;;;10.15;;
40951;SDS011;26682;51.660;19.338;2022-07-01T01:31:42;16.58;;;10.00;;
40951;SDS011;26682;51.660;19.338;2022-07-01T01:33:28;14.88;;;10.00;;
40951;SDS011;26682;51.660;19.338;2022-07-01T01:35:14;16.27;;;9.65;;
40951;SDS011;26682;51.660;19.338;2022-07-01T01:37:00;15.43;;;9.75;;
40951;SDS011;26682;51.660;19.338;2022-07-01T01:38:46;12.18;;;9.30;;
40951;SDS011;26682;51.660;19.338;2022-07-01T01:40:32;15.18;;;10.23;;
40951;SDS011;26682;51.660;19.338;2022-07-01T01:42:18;11.52;;;9.43;;
40951;SDS011;26682;51.660;19.338;2022-07-01T01:44:04;11.85;;;9.73;;
40951;SDS011;26682;51.660;19.338;2022-07-01T01:45:50;12.65;;;10.05;;
40951;SDS011;26682;51.660;19.338;2022-07-01T01:47:37;18.70;;;10.05;;
40951;SDS011;26682;51.660;19.338;2022-07-01T01:49:23;12.27;;;9.38;;
40951;SDS011;26682;51.660;19.338;2022-07-01T01:51:09;11.77;;;9.25;;
40951;SDS011;26682;51.660;19.338;2022-07-01T01:52:55;12.82;;;9.10;;
40951;SDS011;26682;51.660;19.338;2022-07-01T01:54:41;14.70;;;9.40;;
40951;SDS011;26682;51.660;19.338;2022-07-01T01:56:27;10.25;;;9.23;;
40951;SDS011;26682;51.660;19.338;2022-07-01T01:58:13;14.20;;;9.73;;
40951;SDS011;26682;51.660;19.338;2022-07-01T01:59:58;15.15;;;9.40;;
40951;SDS011;26682;51.660;19.338;2022-07-01T02:01:45;13.68;;;9.57;;
40951;SDS011;26682;51.660;19.338;2022-07-01T02:03:30;13.57;;;9.63;;
40951;SDS011;26682;51.660;19.338;2022-07-01T02:05:16;13.57;;;9.45;;
40951;SDS011;26682;51.660;19.338;2022-07-01T02:08:50;14.93;;;10.18;;
40951;SDS011;26682;51.660;19.338;2022-07-01T02:10:36;13.50;;;9.80;;
40951;SDS011;26682;51.660;19.338;2022-07-01T02:12:22;11.95;;;9.52;;
40951;SDS011;26682;51.660;19.338;2022-07-01T02:14:08;13.45;;;9.52;;
40951;SDS011;26682;51.660;19.338;2022-07-01T02:15:54;14.95;;;9.93;;
40951;SDS011;26682;51.660;19.338;2022-07-01T02:17:40;11.52;;;9.00;;
40951;SDS011;26682;51.660;19.338;2022-07-01T02:19:26;16.98;;;10.32;;
40951;SDS011;26682;51.660;19.338;2022-07-01T02:21:12;13.43;;;8.98;;
40951;SDS011;26682;51.660;19.338;2022-07-01T02:22:58;13.30;;;9.60;;
40951;SDS011;26682;51.660;19.338;2022-07-01T02:24:44;14.68;;;9.60;;
40951;SDS011;26682;51.660;19.338;2022-07-01T02:26:30;14.43;;;9.32;;
40951;SDS011;26682;51.660;19.338;2022-07-01T02:28:16;13.63;;;9.02;;
40951;SDS011;26682;51.660;19.338;2022-07-01T02:30:02;11.63;;;8.45;;
40951;SDS011;26682;51.660;19.338;2022-07-01T02:31:51;11.00;;;9.15;;
40951;SDS011;26682;51.660;19.338;2022-07-01T02:33:37;14.60;;;9.57;;
40951;SDS011;26682;51.660;19.338;2022-07-01T02:35:42;14.80;;;10.82;;
40951;SDS011;26682;51.660;19.338;2022-07-01T02:37:28;15.05;;;11.07;;
40951;SDS011;26682;51.660;19.338;2022-07-01T02:39:14;15.90;;;10.43;;
40951;SDS011;26682;51.660;19.338;2022-07-01T02:41:00;15.45;;;10.13;;
40951;SDS011;26682;51.660;19.338;2022-07-01T02:42:46;14.80;;;9.68;;
40951;SDS011;26682;51.660;19.338;2022-07-01T02:44:34;17.98;;;10.65;;
40951;SDS011;26682;51.660;19.338;2022-07-01T02:46:20;15.85;;;9.43;;
40951;SDS011;26682;51.660;19.338;2022-07-01T02:48:06;13.45;;;9.65;;
40951;SDS011;26682;51.660;19.338;2022-07-01T02:49:55;13.45;;;9.00;;
40951;SDS011;26682;51.660;19.338;2022-07-01T02:51:42;14.60;;;9.35;;
40951;SDS011;26682;51.660;19.338;2022-07-01T02:53:28;12.82;;;9.27;;
40951;SDS011;26682;51.660;19.338;2022-07-01T02:55:14;13.63;;;9.18;;
40951;SDS011;26682;51.660;19.338;2022-07-01T02:57:00;18.77;;;9.32;;
40951;SDS011;26682;51.660;19.338;2022-07-01T02:58:46;10.93;;;8.55;;
40951;SDS011;26682;51.660;19.338;2022-07-01T03:00:32;12.57;;;9.10;;
40951;SDS011;26682;51.660;19.338;2022-07-01T03:02:19;15.13;;;8.98;;
40951;SDS011;26682;51.660;19.338;2022-07-01T03:04:05;16.83;;;9.10;;
40951;SDS011;26682;51.660;19.338;2022-07-01T03:05:51;14.75;;;8.63;;
40951;SDS011;26682;51.660;19.338;2022-07-01T03:07:38;13.98;;;8.98;;
40951;SDS011;26682;51.660;19.338;2022-07-01T03:09:24;11.23;;;8.02;;
40951;SDS011;26682;51.660;19.338;2022-07-01T03:11:10;17.35;;;8.88;;
40951;SDS011;26682;51.660;19.338;2022-07-01T03:12:56;10.25;;;8.23;;
40951;SDS011;26682;51.660;19.338;2022-07-01T03:14:44;12.88;;;8.23;;
40951;SDS011;26682;51.660;19.338;2022-07-01T03:16:30;15.20;;;8.30;;
40951;SDS011;26682;51.660;19.338;2022-07-01T03:18:16;13.73;;;9.07;;
40951;SDS011;26682;51.660;19.338;2022-07-01T03:20:02;11.20;;;8.02;;
40951;SDS011;26682;51.660;19.338;2022-07-01T03:21:50;11.55;;;8.68;;
40951;SDS011;26682;51.660;19.338;2022-07-01T03:23:36;14.20;;;9.20;;
40951;SDS011;26682;51.660;19.338;2022-07-01T03:25:22;15.93;;;9.20;;
40951;SDS011;26682;51.660;19.338;2022-07-01T03:27:09;15.35;;;9.10;;
40951;SDS011;26682;51.660;19.338;2022-07-01T03:28:55;12.27;;;8.40;;
40951;SDS011;26682;51.660;19.338;2022-07-01T03:30:41;14.25;;;8.70;;
40951;SDS011;26682;51.660;19.338;2022-07-01T03:32:27;15.68;;;8.38;;
40951;SDS011;26682;51.660;19.338;2022-07-01T03:34:13;11.15;;;8.85;;
40951;SDS011;26682;51.660;19.338;2022-07-01T03:35:59;11.77;;;8.85;;
40951;SDS011;26682;51.660;19.338;2022-07-01T03:37:45;14.60;;;8.77;;
40951;SDS011;26682;51.660;19.338;2022-07-01T03:39:31;12.52;;;8.98;;
40951;SDS011;26682;51.660;19.338;2022-07-01T03:41:17;13.23;;;8.70;;
40951;SDS011;26682;51.660;19.338;2022-07-01T03:43:04;12.02;;;8.45;;
40951;SDS011;26682;51.660;19.338;2022-07-01T03:44:50;15.60;;;8.18;;
40951;SDS011;26682;51.660;19.338;2022-07-01T03:46:37;11.68;;;8.43;;
40951;SDS011;26682;51.660;19.338;2022-07-01T03:48:23;10.50;;;8.20;;
40951;SDS011;26682;51.660;19.338;2022-07-01T03:50:08;10.35;;;8.15;;
40951;SDS011;26682;51.660;19.338;2022-07-01T03:51:54;11.23;;;7.65;;
40951;SDS011;26682;51.660;19.338;2022-07-01T03:53:41;11.00;;;8.32;;
40951;SDS011;26682;51.660;19.338;2022-07-01T03:55:45;14.10;;;8.40;;
40951;SDS011;26682;51.660;19.338;2022-07-01T03:57:31;15.10;;;8.35;;
40951;SDS011;26682;51.660;19.338;2022-07-01T03:59:17;16.00;;;9.05;;
40951;SDS011;26682;51.660;19.338;2022-07-01T04:01:03;14.02;;;8.68;;
40951;SDS011;26682;51.660;19.338;2022-07-01T04:02:49;15.90;;;8.88;;
40951;SDS011;26682;51.660;19.338;2022-07-01T04:04:35;13.45;;;8.45;;
40951;SDS011;26682;51.660;19.338;2022-07-01T04:06:21;11.32;;;8.25;;
40951;SDS011;26682;51.660;19.338;2022-07-01T04:08:07;10.75;;;8.00;;
40951;SDS011;26682;51.660;19.338;2022-07-01T04:09:56;13.90;;;8.43;;
40951;SDS011;26682;51.660;19.338;2022-07-01T04:11:43;10.27;;;8.65;;
40951;SDS011;26682;51.660;19.338;2022-07-01T04:13:29;11.85;;;8.75;;
40951;SDS011;26682;51.660;19.338;2022-07-01T04:15:15;11.88;;;8.27;;
40951;SDS011;26682;51.660;19.338;2022-07-01T04:17:03;10.93;;;8.52;;
40951;SDS011;26682;51.660;19.338;2022-07-01T04:18:49;11.88;;;7.82;;
40951;SDS011;26682;51.660;19.338;2022-07-01T04:20:35;10.38;;;8.02;;
40951;SDS011;26682;51.660;19.338;2022-07-01T04:22:21;17.38;;;8.20;;
40951;SDS011;26682;51.660;19.338;2022-07-01T04:24:21;16.27;;;8.55;;
40951;SDS011;26682;51.660;19.338;2022-07-01T04:26:10;15.38;;;8.43;;
40951;SDS011;26682;51.660;19.338;2022-07-01T04:27:56;12.88;;;8.25;;
40951;SDS011;26682;51.660;19.338;2022-07-01T04:31:29;12.40;;;7.67;;
40951;SDS011;26682;51.660;19.338;2022-07-01T04:33:15;12.48;;;7.72;;
40951;SDS011;26682;51.660;19.338;2022-07-01T04:35:00;14.48;;;8.35;;
40951;SDS011;26682;51.660;19.338;2022-07-01T04:36:46;10.05;;;7.82;;
40951;SDS011;26682;51.660;19.338;2022-07-01T04:38:32;12.00;;;7.95;;
40951;SDS011;26682;51.660;19.338;2022-07-01T04:40:18;13.60;;;8.20;;
40951;SDS011;26682;51.660;19.338;2022-07-01T04:42:05;14.00;;;8.00;;
40951;SDS011;26682;51.660;19.338;2022-07-01T04:43:52;18.88;;;9.05;;
40951;SDS011;26682;51.660;19.338;2022-07-01T04:45:39;31.63;;;9.50;;
40951;SDS011;26682;51.660;19.338;2022-07-01T04:47:25;110.30;;;15.05;;
40951;SDS011;26682;51.660;19.338;2022-07-01T04:49:11;61.58;;;12.05;;
40951;SDS011;26682;51.660;19.338;2022-07-01T04:50:56;96.90;;;14.05;;
40951;SDS011;26682;51.660;19.338;2022-07-01T04:52:42;33.78;;;9.63;;
40951;SDS011;26682;51.660;19.338;2022-07-01T04:54:28;20.02;;;8.40;;
40951;SDS011;26682;51.660;19.338;2022-07-01T04:56:14;15.45;;;8.00;;
40951;SDS011;26682;51.660;19.338;2022-07-01T04:58:01;13.30;;;7.90;;
40951;SDS011;26682;51.660;19.338;2022-07-01T04:59:46;13.57;;;7.70;;
40951;SDS011;26682;51.660;19.338;2022-07-01T05:01:32;9.30;;;7.60;;
40951;SDS011;26682;51.660;19.338;2022-07-01T05:03:19;14.40;;;7.50;;
40951;SDS011;26682;51.660;19.338;2022-07-01T05:05:05;10.38;;;7.88;;
40951;SDS011;26682;51.660;19.338;2022-07-01T05:06:52;14.35;;;8.10;;
40951;SDS011;26682;51.660;19.338;2022-07-01T05:08:38;13.35;;;8.35;;
40951;SDS011;26682;51.660;19.338;2022-07-01T05:10:24;9.32;;;7.93;;
40951;SDS011;26682;51.660;19.338;2022-07-01T05:12:10;12.25;;;7.90;;
40951;SDS011;26682;51.660;19.338;2022-07-01T05:13:56;10.27;;;8.00;;
40951;SDS011;26682;51.660;19.338;2022-07-01T05:15:42;13.60;;;7.63;;
40951;SDS011;26682;51.660;19.338;2022-07-01T05:17:28;13.40;;;8.00;;
40951;SDS011;26682;51.660;19.338;2022-07-01T05:19:34;9.60;;;7.93;;
40951;SDS011;26682;51.660;19.338;2022-07-01T05:21:40;8.63;;;7.57;;
40951;SDS011;26682;51.660;19.338;2022-07-01T05:23:42;14.13;;;7.85;;
40951;SDS011;26682;51.660;19.338;2022-07-01T05:25:28;13.80;;;8.23;;
40951;SDS011;26682;51.660;19.338;2022-07-01T05:27:15;15.38;;;7.95;;
40951;SDS011;26682;51.660;19.338;2022-07-01T05:29:01;13.27;;;8.30;;
40951;SDS011;26682;51.660;19.338;2022-07-01T05:30:48;16.63;;;9.07;;
40951;SDS011;26682;51.660;19.338;2022-07-01T05:32:34;10.67;;;7.90;;
40951;SDS011;26682;51.660;19.338;2022-07-01T05:34:21;11.50;;;8.20;;
40951;SDS011;26682;51.660;19.338;2022-07-01T05:36:08;9.30;;;8.23;;
40951;SDS011;26682;51.660;19.338;2022-07-01T05:37:54;11.75;;;8.25;;
40951;SDS011;26682;51.660;19.338;2022-07-01T05:39:41;11.52;;;8.82;;
40951;SDS011;26682;51.660;19.338;2022-07-01T05:41:27;11.57;;;8.38;;
40951;SDS011;26682;51.660;19.338;2022-07-01T05:43:14;10.77;;;8.52;;
40951;SDS011;26682;51.660;19.338;2022-07-01T05:45:00;9.45;;;8.13;;
40951;SDS011;26682;51.660;19.338;2022-07-01T05:46:46;18.58;;;8.98;;
40951;SDS011;26682;51.660;19.338;2022-07-01T05:48:32;10.98;;;8.43;;
40951;SDS011;26682;51.660;19.338;2022-07-01T05:50:17;16.10;;;8.75;;
40951;SDS011;26682;51.660;19.338;2022-07-01T05:55:37;14.80;;;9.53;;
40951;SDS011;26682;51.660;19.338;2022-07-01T05:57:23;20.15;;;9.07;;
40951;SDS011;26682;51.660;19.338;2022-07-01T05:59:09;12.93;;;9.38;;
40951;SDS011;26682;51.660;19.338;2022-07-01T06:00:55;13.57;;;9.00;;
40951;SDS011;26682;51.660;19.338;2022-07-01T06:02:42;15.40;;;9.18;;
40951;SDS011;26682;51.660;19.338;2022-07-01T06:04:29;12.47;;;8.93;;
40951;SDS011;26682;51.660;19.338;2022-07-01T06:06:15;12.75;;;9.25;;
40951;SDS011;26682;51.660;19.338;2022-07-01T06:08:04;22.15;;;9.73;;
40951;SDS011;26682;51.660;19.338;2022-07-01T06:09:51;13.00;;;9.63;;
40951;SDS011;26682;51.660;19.338;2022-07-01T06:11:37;16.17;;;9.70;;
40951;SDS011;26682;51.660;19.338;2022-07-01T06:13:23;15.15;;;9.80;;
40951;SDS011;26682;51.660;19.338;2022-07-01T06:15:10;29.10;;;10.73;;
40951;SDS011;26682;51.660;19.338;2022-07-01T06:16:57;20.27;;;9.80;;
40951;SDS011;26682;51.660;19.338;2022-07-01T06:18:43;18.13;;;9.88;;
40951;SDS011;26682;51.660;19.338;2022-07-01T06:20:30;13.97;;;9.97;;
40951;SDS011;26682;51.660;19.338;2022-07-01T06:22:16;15.68;;;10.02;;
40951;SDS011;26682;51.660;19.338;2022-07-01T06:24:05;15.77;;;10.00;;
40951;SDS011;26682;51.660;19.338;2022-07-01T06:25:51;13.73;;;9.90;;
40951;SDS011;26682;51.660;19.338;2022-07-01T06:27:42;13.60;;;10.43;;
40951;SDS011;26682;51.660;19.338;2022-07-01T06:29:29;16.75;;;10.00;;
40951;SDS011;26682;51.660;19.338;2022-07-01T06:31:16;16.07;;;9.83;;
40951;SDS011;26682;51.660;19.338;2022-07-01T06:33:02;12.85;;;10.10;;
40951;SDS011;26682;51.660;19.338;2022-07-01T06:34:48;12.82;;;10.05;;
40951;SDS011;26682;51.660;19.338;2022-07-01T06:36:34;14.45;;;10.35;;
40951;SDS011;26682;51.660;19.338;2022-07-01T06:38:20;13.02;;;10.27;;
40951;SDS011;26682;51.660;19.338;2022-07-01T06:40:06;17.27;;;10.70;;
40951;SDS011;26682;51.660;19.338;2022-07-01T06:41:52;15.60;;;10.73;;
40951;SDS011;26682;51.660;19.338;2022-07-01T06:43:38;16.50;;;10.90;;
40951;SDS011;26682;51.660;19.338;2022-07-01T06:45:24;11.27;;;10.15;;
40951;SDS011;26682;51.660;19.338;2022-07-01T06:47:10;13.90;;;10.48;;
40951;SDS011;26682;51.660;19.338;2022-07-01T06:48:56;18.38;;;10.68;;
40951;SDS011;26682;51.660;19.338;2022-07-01T06:50:45;14.85;;;10.43;;
40951;SDS011;26682;51.660;19.338;2022-07-01T06:52:31;12.43;;;10.60;;
40951;SDS011;26682;51.660;19.338;2022-07-01T06:54:17;20.60;;;11.30;;
40951;SDS011;26682;51.660;19.338;2022-07-01T06:56:04;19.17;;;10.73;;
40951;SDS011;26682;51.660;19.338;2022-07-01T06:57:51;14.70;;;10.43;;
40951;SDS011;26682;51.660;19.338;2022-07-01T06:59:37;14.98;;;11.02;;
40951;SDS011;26682;51.660;19.338;2022-07-01T07:01:23;14.02;;;9.80;;
40951;SDS011;26682;51.660;19.338;2022-07-01T07:03:10;12.18;;;10.98;;
40951;SDS011;26682;51.660;19.338;2022-07-01T07:04:56;13.00;;;10.75;;
40951;SDS011;26682;51.660;19.338;2022-07-01T07:06:43;14.63;;;10.75;;
40951;SDS011;26682;51.660;19.338;2022-07-01T07:08:29;15.85;;;10.93;;
40951;SDS011;26682;51.660;19.338;2022-07-01T07:12:02;15.63;;;10.52;;
40951;SDS011;26682;51.660;19.338;2022-07-01T07:13:49;20.05;;;10.98;;
40951;SDS011;26682;51.660;19.338;2022-07-01T07:15:35;14.68;;;10.77;;
40951;SDS011;26682;51.660;19.338;2022-07-01T07:17:21;12.15;;;10.77;;
40951;SDS011;26682;51.660;19.338;2022-07-01T07:19:07;19.85;;;11.10;;
40951;SDS011;26682;51.660;19.338;2022-07-01T07:20:53;13.48;;;11.02;;
40951;SDS011;26682;51.660;19.338;2022-07-01T07:22:39;20.92;;;11.85;;
40951;SDS011;26682;51.660;19.338;2022-07-01T07:24:25;21.63;;;11.35;;
40951;SDS011;26682;51.660;19.338;2022-07-01T07:26:11;17.63;;;11.00;;
40951;SDS011;26682;51.660;19.338;2022-07-01T07:27:58;12.90;;;11.50;;
40951;SDS011;26682;51.660;19.338;2022-07-01T07:29:43;18.60;;;10.93;;
40951;SDS011;26682;51.660;19.338;2022-07-01T07:31:29;16.55;;;12.07;;
40951;SDS011;26682;51.660;19.338;2022-07-01T07:33:16;15.05;;;10.40;;
40951;SDS011;26682;51.660;19.338;2022-07-01T07:35:01;15.60;;;11.40;;
40951;SDS011;26682;51.660;19.338;2022-07-01T07:36:48;13.90;;;11.05;;
40951;SDS011;26682;51.660;19.338;2022-07-01T07:38:36;15.32;;;11.20;;
40951;SDS011;26682;51.660;19.338;2022-07-01T07:40:22;12.73;;;11.20;;
40951;SDS011;26682;51.660;19.338;2022-07-01T07:42:09;11.80;;;10.68;;
40951;SDS011;26682;51.660;19.338;2022-07-01T07:43:55;12.02;;;10.85;;
40951;SDS011;26682;51.660;19.338;2022-07-01T07:45:41;13.38;;;11.52;;
40951;SDS011;26682;51.660;19.338;2022-07-01T07:47:27;19.35;;;11.20;;
40951;SDS011;26682;51.660;19.338;2022-07-01T07:49:13;13.13;;;11.25;;
40951;SDS011;26682;51.660;19.338;2022-07-01T07:50:59;16.98;;;11.25;;
40951;SDS011;26682;51.660;19.338;2022-07-01T07:52:45;15.00;;;11.23;;
40951;SDS011;26682;51.660;19.338;2022-07-01T07:54:31;13.23;;;11.88;;
40951;SDS011;26682;51.660;19.338;2022-07-01T07:56:17;21.27;;;11.15;;
40951;SDS011;26682;51.660;19.338;2022-07-01T07:58:04;12.65;;;11.10;;
40951;SDS011;26682;51.660;19.338;2022-07-01T07:59:51;18.58;;;10.82;;
40951;SDS011;26682;51.660;19.338;2022-07-01T08:01:37;13.23;;;10.73;;
40951;SDS011;26682;51.660;19.338;2022-07-01T08:03:23;15.93;;;11.35;;
40951;SDS011;26682;51.660;19.338;2022-07-01T08:05:09;13.57;;;11.38;;
40951;SDS011;26682;51.660;19.338;2022-07-01T08:06:56;13.95;;;11.23;;
40951;SDS011;26682;51.660;19.338;2022-07-01T08:08:42;11.77;;;10.68;;
40951;SDS011;26682;51.660;19.338;2022-07-01T08:10:28;15.23;;;11.20;;
40951;SDS011;26682;51.660;19.338;2022-07-01T08:12:14;11.68;;;10.50;;
40951;SDS011;26682;51.660;19.338;2022-07-01T08:14:01;13.77;;;10.85;;
40951;SDS011;26682;51.660;19.338;2022-07-01T08:15:47;13.63;;;10.60;;
40951;SDS011;26682;51.660;19.338;2022-07-01T08:17:33;14.57;;;10.90;;
40951;SDS011;26682;51.660;19.338;2022-07-01T08:19:19;17.40;;;9.90;;
40951;SDS011;26682;51.660;19.338;2022-07-01T08:21:05;10.98;;;9.93;;
40951;SDS011;26682;51.660;19.338;2022-07-01T08:22:51;11.38;;;10.20;;
40951;SDS011;26682;51.660;19.338;2022-07-01T08:24:37;13.35;;;10.43;;
40951;SDS011;26682;51.660;19.338;2022-07-01T08:26:23;18.33;;;10.93;;
40951;SDS011;26682;51.660;19.338;2022-07-01T08:28:10;15.27;;;10.48;;
40951;SDS011;26682;51.660;19.338;2022-07-01T08:29:56;18.23;;;9.98;;
40951;SDS011;26682;51.660;19.338;2022-07-01T08:31:42;19.40;;;10.60;;
40951;SDS011;26682;51.660;19.338;2022-07-01T08:33:28;12.85;;;10.57;;
40951;SDS011;26682;51.660;19.338;2022-07-01T08:35:14;12.57;;;10.05;;
40951;SDS011;26682;51.660;19.338;2022-07-01T08:37:01;13.00;;;10.40;;
40951;SDS011;26682;51.660;19.338;2022-07-01T08:38:49;14.93;;;12.00;;
40951;SDS011;26682;51.660;19.338;2022-07-01T08:40:35;11.90;;;9.70;;
40951;SDS011;26682;51.660;19.338;2022-07-01T08:42:21;12.63;;;10.48;;
40951;SDS011;26682;51.660;19.338;2022-07-01T08:44:07;10.73;;;9.77;;
40951;SDS011;26682;51.660;19.338;2022-07-01T08:45:54;11.87;;;10.67;;
40951;SDS011;26682;51.660;19.338;2022-07-01T08:47:53;17.02;;;10.57;;
40951;SDS011;26682;51.660;19.338;2022-07-01T08:49:42;11.82;;;10.57;;
40951;SDS011;26682;51.660;19.338;2022-07-01T08:51:29;16.50;;;10.82;;
40951;SDS011;26682;51.660;19.338;2022-07-01T08:53:15;11.70;;;10.50;;
40951;SDS011;26682;51.660;19.338;2022-07-01T08:55:01;18.33;;;10.38;;
40951;SDS011;26682;51.660;19.338;2022-07-01T08:56:47;14.57;;;10.75;;
40951;SDS011;26682;51.660;19.338;2022-07-01T08:58:34;12.10;;;10.87;;
40951;SDS011;26682;51.660;19.338;2022-07-01T09:00:28;11.95;;;10.65;;
40951;SDS011;26682;51.660;19.338;2022-07-01T09:02:15;16.65;;;10.50;;
40951;SDS011;26682;51.660;19.338;2022-07-01T09:04:20;15.35;;;10.25;;
40951;SDS011;26682;51.660;19.338;2022-07-01T09:06:15;11.40;;;10.23;;
40951;SDS011;26682;51.660;19.338;2022-07-01T09:08:04;11.95;;;10.32;;
40951;SDS011;26682;51.660;19.338;2022-07-01T09:09:51;11.60;;;10.38;;
40951;SDS011;26682;51.660;19.338;2022-07-01T09:11:56;13.07;;;10.80;;
40951;SDS011;26682;51.660;19.338;2022-07-01T09:13:43;12.35;;;10.70;;
40951;SDS011;26682;51.660;19.338;2022-07-01T09:15:30;14.50;;;11.13;;
40951;SDS011;26682;51.660;19.338;2022-07-01T09:19:04;12.25;;;10.68;;
40951;SDS011;26682;51.660;19.338;2022-07-01T09:20:50;13.93;;;10.40;;
40951;SDS011;26682;51.660;19.338;2022-07-01T09:22:36;11.63;;;10.50;;
40951;SDS011;26682;51.660;19.338;2022-07-01T09:26:09;11.70;;;10.50;;
40951;SDS011;26682;51.660;19.338;2022-07-01T09:28:10;13.93;;;10.50;;
40951;SDS011;26682;51.660;19.338;2022-07-01T09:29:58;11.65;;;10.55;;
40951;SDS011;26682;51.660;19.338;2022-07-01T09:31:47;16.83;;;10.80;;
40951;SDS011;26682;51.660;19.338;2022-07-01T09:33:34;13.55;;;10.45;;
40951;SDS011;26682;51.660;19.338;2022-07-01T09:35:23;15.18;;;10.25;;
40951;SDS011;26682;51.660;19.338;2022-07-01T09:37:13;11.55;;;10.57;;
40951;SDS011;26682;51.660;19.338;2022-07-01T09:39:04;12.13;;;10.52;;
40951;SDS011;26682;51.660;19.338;2022-07-01T09:40:54;16.60;;;10.73;;
40951;SDS011;26682;51.660;19.338;2022-07-01T09:42:44;11.57;;;10.43;;
40951;SDS011;26682;51.660;19.338;2022-07-01T09:44:31;18.27;;;10.73;;
40951;SDS011;26682;51.660;19.338;2022-07-01T09:46:17;12.70;;;10.77;;
40951;SDS011;26682;51.660;19.338;2022-07-01T09:48:04;15.57;;;10.67;;
40951;SDS011;26682;51.660;19.338;2022-07-01T09:49:50;14.10;;;10.55;;
40951;SDS011;26682;51.660;19.338;2022-07-01T09:51:36;14.80;;;11.02;;
40951;SDS011;26682;51.660;19.338;2022-07-01T09:53:22;12.77;;;11.23;;
40951;SDS011;26682;51.660;19.338;2022-07-01T09:55:08;15.45;;;10.75;;
40951;SDS011;26682;51.660;19.338;2022-07-01T09:56:54;15.25;;;10.82;;
40951;SDS011;26682;51.660;19.338;2022-07-01T09:58:41;12.63;;;10.67;;
40951;SDS011;26682;51.660;19.338;2022-07-01T10:00:28;11.90;;;10.50;;
40951;SDS011;26682;51.660;19.338;2022-07-01T10:02:20;11.95;;;10.70;;
40951;SDS011;26682;51.660;19.338;2022-07-01T10:04:07;14.85;;;10.95;;
40951;SDS011;26682;51.660;19.338;2022-07-01T10:05:57;15.65;;;11.00;;
40951;SDS011;26682;51.660;19.338;2022-07-01T10:08:13;11.35;;;10.02;;
40951;SDS011;26682;51.660;19.338;2022-07-01T10:10:21;13.68;;;9.60;;
40951;SDS011;26682;51.660;19.338;2022-07-01T10:12:35;11.18;;;9.73;;
40951;SDS011;26682;51.660;19.338;2022-07-01T10:14:24;13.05;;;10.00;;
40951;SDS011;26682;51.660;19.338;2022-07-01T10:16:11;13.45;;;10.07;;
40951;SDS011;26682;51.660;19.338;2022-07-01T10:17:59;11.88;;;10.15;;
40951;SDS011;26682;51.660;19.338;2022-07-01T10:19:45;12.45;;;10.07;;
40951;SDS011;26682;51.660;19.338;2022-07-01T10:21:40;10.50;;;9.70;;
40951;SDS011;26682;51.660;19.338;2022-07-01T10:23:42;12.50;;;10.98;;
40951;SDS011;26682;51.660;19.338;2022-07-01T10:25:29;11.57;;;10.38;;
40951;SDS011;26682;51.660;19.338;2022-07-01T10:27:25;11.43;;;9.40;;
40951;SDS011;26682;51.660;19.338;2022-07-01T10:31:18;13.30;;;8.68;;
40951;SDS011;26682;51.660;19.338;2022-07-01T10:33:04;11.80;;;8.07;;
40951;SDS011;26682;51.660;19.338;2022-07-01T10:34:50;10.50;;;8.30;;
40951;SDS011;26682;51.660;19.338;2022-07-01T10:37:02;9.88;;;8.27;;
40951;SDS011;26682;51.660;19.338;2022-07-01T10:40:51;18.13;;;8.48;;